Portada
METAR-TAF:

METAR-TAF

Aeropuertos :

Aeropuerto de Badajoz

Badajoz, España

latitud: 38-53N, longitud: 006-49W, altitud: 185 m

Observación

El informe se hizo hace 26 minutos, a las 05:00 UTC
Viento 2 kt del este
Temperatura 11°C
Humedad 94%
Presión 1012 hPa
Visibilidad 10 km o más
sin nubes por debajo de 1500 m y sin presencia de cumulonimbus.

METAR: LEBZ 210500Z 09002KT CAVOK 11/10 Q1012

Hora: 07:26 (05:26 UTC)

Pronóstico

El informe se hizo hace 6 horas y 26 minutos, a las 23:00 UTC
Pronóstico válido del 21 a las 00 UTC al 21 a las 24 UTC
Viento 5 kt del oeste
Visibilidad 10 km o más
Escasas nubes a una altura de 3500 ft
Probabilidad 40% :
Temporalmente
del 21 a las 03 UTC al 21 a las 08 UTC
Visibilidad: 3000 m
Cielo nuboso a una altura de 800 ft
neblina

TAF: LEBZ 202300Z 2100/2124 27005KT 9999 FEW035 TX26/2115Z TN13/2106Z PROB40 TEMPO 2103/2108 3000 BR BKN008

Observaciones y pronósticos meteorológicos de más de 4000 aeropuertos (mensajes METAR y TAF).

Los puntos amarillos y rojos representan las estaciones disponibles.

Ponga el ratón en el punto deseado para ver el nombre de la estación.

Haga clic para ver las observaciones y los pronósticos meteorológicos.

Para cambiar el mapa : haga clic en los botones verdes con una cruz de color negro para hacer un zoom, en el botón verde con un guión para alejar o en las flechas verdes para mapas adyacentes.


METAR-TAF: